Terminal Aerodrome Forecast
Issued by NWS

Home | Current Version | Previous Version | Text Only | Print | Product List | Glossary On
Versions: 1 2 3 4 5 6 7 8 9 10 11 12
000
FTUS45 KRIW 161700
TAFRKS
TAF
KRKS 161720Z 1618/1718 23008KT P6SM FEW120
     FM161900 25010G18KT P6SM SCT110
     FM170200 24008KT P6SM SCT120=

USA.gov is the U.S. government's official web portal to all federal, state and local government web resources and services.